sensor_id;sensor_type;location;lat;lon;timestamp;P1;durP1;ratioP1;P2;durP2;ratioP2
13002;SDS011;6566;57.702;11.984;2022-11-27T00:01:57;37.83;;;14.85;;
13002;SDS011;6566;57.702;11.984;2022-11-27T00:04:22;39.90;;;13.90;;
13002;SDS011;6566;57.702;11.984;2022-11-27T00:06:47;36.75;;;13.68;;
13002;SDS011;6566;57.702;11.984;2022-11-27T00:09:13;30.98;;;13.95;;
13002;SDS011;6566;57.702;11.984;2022-11-27T00:11:39;36.20;;;12.90;;
13002;SDS011;6566;57.702;11.984;2022-11-27T00:14:05;32.88;;;13.05;;
13002;SDS011;6566;57.702;11.984;2022-11-27T00:16:30;36.30;;;13.55;;
13002;SDS011;6566;57.702;11.984;2022-11-27T00:18:56;40.13;;;13.25;;
13002;SDS011;6566;57.702;11.984;2022-11-27T00:21:22;34.90;;;13.02;;
13002;SDS011;6566;57.702;11.984;2022-11-27T00:23:48;35.83;;;12.88;;
13002;SDS011;6566;57.702;11.984;2022-11-27T00:26:14;33.60;;;12.55;;
13002;SDS011;6566;57.702;11.984;2022-11-27T00:28:39;26.98;;;12.93;;
13002;SDS011;6566;57.702;11.984;2022-11-27T00:31:13;43.40;;;13.25;;
13002;SDS011;6566;57.702;11.984;2022-11-27T00:33:39;34.30;;;13.45;;
13002;SDS011;6566;57.702;11.984;2022-11-27T00:36:05;30.55;;;11.75;;
13002;SDS011;6566;57.702;11.984;2022-11-27T00:38:30;32.95;;;12.65;;
13002;SDS011;6566;57.702;11.984;2022-11-27T00:41:06;26.40;;;12.27;;
13002;SDS011;6566;57.702;11.984;2022-11-27T00:43:32;31.52;;;12.00;;
13002;SDS011;6566;57.702;11.984;2022-11-27T00:45:57;27.00;;;11.50;;
13002;SDS011;6566;57.702;11.984;2022-11-27T00:48:22;30.90;;;11.95;;
13002;SDS011;6566;57.702;11.984;2022-11-27T00:50:48;38.67;;;12.65;;
13002;SDS011;6566;57.702;11.984;2022-11-27T00:53:13;28.15;;;12.27;;
13002;SDS011;6566;57.702;11.984;2022-11-27T00:55:38;31.98;;;11.70;;
13002;SDS011;6566;57.702;11.984;2022-11-27T00:58:03;28.45;;;11.85;;
13002;SDS011;6566;57.702;11.984;2022-11-27T01:00:28;31.17;;;11.63;;
13002;SDS011;6566;57.702;11.984;2022-11-27T01:02:54;29.35;;;11.35;;
13002;SDS011;6566;57.702;11.984;2022-11-27T01:05:19;27.70;;;11.70;;
13002;SDS011;6566;57.702;11.984;2022-11-27T01:07:44;32.97;;;12.57;;
13002;SDS011;6566;57.702;11.984;2022-11-27T01:10:10;29.65;;;11.45;;
13002;SDS011;6566;57.702;11.984;2022-11-27T01:12:35;26.35;;;11.85;;
13002;SDS011;6566;57.702;11.984;2022-11-27T01:15:00;31.17;;;12.20;;
13002;SDS011;6566;57.702;11.984;2022-11-27T01:17:26;30.85;;;11.88;;
13002;SDS011;6566;57.702;11.984;2022-11-27T01:19:51;35.08;;;11.88;;
13002;SDS011;6566;57.702;11.984;2022-11-27T01:22:16;35.05;;;11.07;;
13002;SDS011;6566;57.702;11.984;2022-11-27T01:24:42;32.55;;;11.80;;
13002;SDS011;6566;57.702;11.984;2022-11-27T01:27:07;25.45;;;11.50;;
13002;SDS011;6566;57.702;11.984;2022-11-27T01:29:32;28.50;;;12.05;;
13002;SDS011;6566;57.702;11.984;2022-11-27T01:31:57;28.63;;;11.10;;
13002;SDS011;6566;57.702;11.984;2022-11-27T01:34:23;31.50;;;12.55;;
13002;SDS011;6566;57.702;11.984;2022-11-27T01:36:48;29.40;;;12.25;;
13002;SDS011;6566;57.702;11.984;2022-11-27T01:39:17;25.77;;;11.00;;
13002;SDS011;6566;57.702;11.984;2022-11-27T01:41:43;25.35;;;11.60;;
13002;SDS011;6566;57.702;11.984;2022-11-27T01:54:15;24.05;;;11.00;;
13002;SDS011;6566;57.702;11.984;2022-11-27T01:56:41;27.30;;;11.10;;
13002;SDS011;6566;57.702;11.984;2022-11-27T01:59:07;22.85;;;10.90;;
13002;SDS011;6566;57.702;11.984;2022-11-27T02:01:32;26.92;;;11.23;;
13002;SDS011;6566;57.702;11.984;2022-11-27T02:03:58;29.05;;;11.15;;
13002;SDS011;6566;57.702;11.984;2022-11-27T02:06:24;25.02;;;10.57;;
13002;SDS011;6566;57.702;11.984;2022-11-27T02:08:50;24.10;;;10.65;;
13002;SDS011;6566;57.702;11.984;2022-11-27T02:14:07;27.63;;;10.43;;
13002;SDS011;6566;57.702;11.984;2022-11-27T02:16:35;23.42;;;10.00;;
13002;SDS011;6566;57.702;11.984;2022-11-27T02:19:06;24.98;;;9.98;;
13002;SDS011;6566;57.702;11.984;2022-11-27T02:21:40;21.58;;;10.10;;
13002;SDS011;6566;57.702;11.984;2022-11-27T02:29:32;19.17;;;9.77;;
13002;SDS011;6566;57.702;11.984;2022-11-27T02:37:19;21.23;;;8.55;;
13002;SDS011;6566;57.702;11.984;2022-11-27T02:40:02;18.08;;;8.63;;
13002;SDS011;6566;57.702;11.984;2022-11-27T02:42:30;18.30;;;8.85;;
13002;SDS011;6566;57.702;11.984;2022-11-27T02:45:07;15.13;;;8.38;;
13002;SDS011;6566;57.702;11.984;2022-11-27T02:47:33;13.90;;;7.80;;
13002;SDS011;6566;57.702;11.984;2022-11-27T02:49:59;16.83;;;8.70;;
13002;SDS011;6566;57.702;11.984;2022-11-27T02:52:25;16.55;;;7.85;;
13002;SDS011;6566;57.702;11.984;2022-11-27T02:54:53;15.00;;;7.28;;
13002;SDS011;6566;57.702;11.984;2022-11-27T02:57:19;12.50;;;7.13;;
13002;SDS011;6566;57.702;11.984;2022-11-27T02:59:45;15.60;;;7.68;;
13002;SDS011;6566;57.702;11.984;2022-11-27T03:02:12;15.82;;;7.00;;
13002;SDS011;6566;57.702;11.984;2022-11-27T03:04:43;17.83;;;7.75;;
13002;SDS011;6566;57.702;11.984;2022-11-27T03:07:14;14.25;;;7.07;;
13002;SDS011;6566;57.702;11.984;2022-11-27T03:09:45;14.95;;;7.10;;
13002;SDS011;6566;57.702;11.984;2022-11-27T03:12:11;13.77;;;6.85;;
13002;SDS011;6566;57.702;11.984;2022-11-27T03:14:38;12.13;;;6.40;;
13002;SDS011;6566;57.702;11.984;2022-11-27T03:19:51;12.43;;;6.28;;
13002;SDS011;6566;57.702;11.984;2022-11-27T03:22:17;17.17;;;6.57;;
13002;SDS011;6566;57.702;11.984;2022-11-27T03:24:42;13.13;;;6.57;;
13002;SDS011;6566;57.702;11.984;2022-11-27T03:27:07;9.90;;;6.60;;
13002;SDS011;6566;57.702;11.984;2022-11-27T03:29:47;15.13;;;6.25;;
13002;SDS011;6566;57.702;11.984;2022-11-27T03:32:13;11.30;;;6.05;;
13002;SDS011;6566;57.702;11.984;2022-11-27T03:34:38;10.05;;;6.28;;
13002;SDS011;6566;57.702;11.984;2022-11-27T03:37:03;11.27;;;6.32;;
13002;SDS011;6566;57.702;11.984;2022-11-27T03:39:29;11.75;;;6.35;;
13002;SDS011;6566;57.702;11.984;2022-11-27T03:44:30;12.82;;;6.65;;
13002;SDS011;6566;57.702;11.984;2022-11-27T03:57:16;13.52;;;6.38;;
13002;SDS011;6566;57.702;11.984;2022-11-27T03:59:41;10.30;;;5.68;;
13002;SDS011;6566;57.702;11.984;2022-11-27T04:02:12;9.68;;;6.05;;
13002;SDS011;6566;57.702;11.984;2022-11-27T04:04:37;8.50;;;5.47;;
13002;SDS011;6566;57.702;11.984;2022-11-27T04:07:03;10.48;;;5.88;;
13002;SDS011;6566;57.702;11.984;2022-11-27T04:09:28;10.82;;;5.82;;
13002;SDS011;6566;57.702;11.984;2022-11-27T04:11:53;8.48;;;4.97;;
13002;SDS011;6566;57.702;11.984;2022-11-27T04:14:18;8.48;;;4.97;;
13002;SDS011;6566;57.702;11.984;2022-11-27T04:16:44;11.23;;;5.18;;
13002;SDS011;6566;57.702;11.984;2022-11-27T04:19:09;8.38;;;4.68;;
13002;SDS011;6566;57.702;11.984;2022-11-27T04:21:34;8.63;;;4.75;;
13002;SDS011;6566;57.702;11.984;2022-11-27T04:23:59;8.18;;;4.78;;
13002;SDS011;6566;57.702;11.984;2022-11-27T04:26:25;8.82;;;5.07;;
13002;SDS011;6566;57.702;11.984;2022-11-27T04:28:50;6.97;;;4.43;;
13002;SDS011;6566;57.702;11.984;2022-11-27T04:31:15;7.88;;;4.82;;
13002;SDS011;6566;57.702;11.984;2022-11-27T04:33:40;8.35;;;4.10;;
13002;SDS011;6566;57.702;11.984;2022-11-27T04:36:06;6.85;;;4.45;;
13002;SDS011;6566;57.702;11.984;2022-11-27T04:38:31;9.07;;;4.80;;
13002;SDS011;6566;57.702;11.984;2022-11-27T22:54:35;8.27;;;2.95;;
13002;SDS011;6566;57.702;11.984;2022-11-27T22:57:00;9.90;;;3.38;;
13002;SDS011;6566;57.702;11.984;2022-11-27T22:59:26;7.20;;;3.25;;
13002;SDS011;6566;57.702;11.984;2022-11-27T23:01:52;5.13;;;2.85;;
13002;SDS011;6566;57.702;11.984;2022-11-27T23:04:17;10.45;;;3.95;;
13002;SDS011;6566;57.702;11.984;2022-11-27T23:06:42;6.95;;;3.30;;
13002;SDS011;6566;57.702;11.984;2022-11-27T23:09:12;9.55;;;3.90;;
13002;SDS011;6566;57.702;11.984;2022-11-27T23:11:37;9.70;;;3.88;;
13002;SDS011;6566;57.702;11.984;2022-11-27T23:14:03;13.45;;;3.55;;
13002;SDS011;6566;57.702;11.984;2022-11-27T23:16:28;8.90;;;3.40;;
13002;SDS011;6566;57.702;11.984;2022-11-27T23:18:54;8.45;;;3.80;;
13002;SDS011;6566;57.702;11.984;2022-11-27T23:21:20;9.90;;;3.45;;
13002;SDS011;6566;57.702;11.984;2022-11-27T23:23:45;7.15;;;3.40;;
13002;SDS011;6566;57.702;11.984;2022-11-27T23:26:12;8.57;;;4.10;;
13002;SDS011;6566;57.702;11.984;2022-11-27T23:28:39;9.65;;;3.58;;
13002;SDS011;6566;57.702;11.984;2022-11-27T23:31:08;13.70;;;3.92;;
13002;SDS011;6566;57.702;11.984;2022-11-27T23:33:34;8.52;;;3.80;;
13002;SDS011;6566;57.702;11.984;2022-11-27T23:36:00;9.38;;;4.20;;
13002;SDS011;6566;57.702;11.984;2022-11-27T23:38:26;11.95;;;3.85;;
13002;SDS011;6566;57.702;11.984;2022-11-27T23:40:51;9.05;;;3.60;;
13002;SDS011;6566;57.702;11.984;2022-11-27T23:43:16;9.00;;;3.72;;
13002;SDS011;6566;57.702;11.984;2022-11-27T23:45:42;11.70;;;3.97;;
13002;SDS011;6566;57.702;11.984;2022-11-27T23:48:07;8.95;;;3.50;;
13002;SDS011;6566;57.702;11.984;2022-11-27T23:50:32;12.75;;;3.90;;
13002;SDS011;6566;57.702;11.984;2022-11-27T23:52:57;13.73;;;4.63;;
13002;SDS011;6566;57.702;11.984;2022-11-27T23:55:23;12.02;;;4.13;;
13002;SDS011;6566;57.702;11.984;2022-11-27T23:57:48;11.20;;;4.40;;
